Jamestown, California
Current Conditions -  °F | °C
As of 8:35 AM on Saturday 22 Nov 2014 (Local Time) from KO22 Reporting Station
Clear Clear  
Wind Chill: 46°   Ceiling: Unl
Heat Index: 48°   Visibility: 4mi
Dew Point: 48°   Wind: 5mph
Humidity: 100%   Direction: 170°S
Pressure: 30.12"   Gusts: NA
Location:  37.95°N, 120.43°W
Report Text: KO22 221635Z AUTO 17004KT 4SM CLR 09/09 A3012 RMK AO1 P0001
Loading
Personal Weather Stations






























Interactive Weather Map New forecast layout! Learn more

10-Day Weather Forecast

Advertisements
Track Severe Weather on mobile